sensor_id;sensor_type;location;lat;lon;timestamp;pressure;altitude;pressure_sealevel;temperature;humidity
79527;BME280;68974;47.754;-3.364;2023-04-16T00:01:01;102606.97;;;10.07;59.78
79527;BME280;68974;47.754;-3.364;2023-04-16T00:03:27;102601.25;;;10.08;59.45
79527;BME280;68974;47.754;-3.364;2023-04-16T00:05:52;102599.91;;;9.99;60.02
79527;BME280;68974;47.754;-3.364;2023-04-16T00:08:20;102608.91;;;9.88;60.07
79527;BME280;68974;47.754;-3.364;2023-04-16T00:10:45;102597.16;;;9.99;59.68
79527;BME280;68974;47.754;-3.364;2023-04-16T00:13:11;102593.06;;;9.90;59.92
79527;BME280;68974;47.754;-3.364;2023-04-16T00:15:36;102594.25;;;9.94;59.66
79527;BME280;68974;47.754;-3.364;2023-04-16T00:18:01;102590.31;;;9.90;59.87
79527;BME280;68974;47.754;-3.364;2023-04-16T00:20:27;102598.47;;;9.78;59.85
79527;BME280;68974;47.754;-3.364;2023-04-16T00:22:52;102591.78;;;9.74;60.77
79527;BME280;68974;47.754;-3.364;2023-04-16T00:25:18;102598.09;;;9.75;60.61
79527;BME280;68974;47.754;-3.364;2023-04-16T00:27:43;102593.44;;;9.75;60.69
79527;BME280;68974;47.754;-3.364;2023-04-16T00:30:08;102595.50;;;9.80;60.93
79527;BME280;68974;47.754;-3.364;2023-04-16T00:32:34;102599.84;;;9.69;61.28
79527;BME280;68974;47.754;-3.364;2023-04-16T00:34:59;102608.72;;;9.71;61.39
79527;BME280;68974;47.754;-3.364;2023-04-16T00:37:25;102609.84;;;9.82;61.31
79527;BME280;68974;47.754;-3.364;2023-04-16T00:39:50;102605.56;;;9.68;62.02
79527;BME280;68974;47.754;-3.364;2023-04-16T00:42:16;102606.94;;;9.58;62.15
79527;BME280;68974;47.754;-3.364;2023-04-16T00:44:41;102598.28;;;9.62;61.49
79527;BME280;68974;47.754;-3.364;2023-04-16T00:47:06;102601.78;;;9.50;61.64
79527;BME280;68974;47.754;-3.364;2023-04-16T00:49:32;102614.13;;;9.41;62.42
79527;BME280;68974;47.754;-3.364;2023-04-16T00:51:59;102612.91;;;9.37;62.66
79527;BME280;68974;47.754;-3.364;2023-04-16T00:54:27;102593.25;;;9.40;61.71
79527;BME280;68974;47.754;-3.364;2023-04-16T00:56:52;102596.91;;;9.52;61.71
79527;BME280;68974;47.754;-3.364;2023-04-16T00:59:18;102613.59;;;9.51;62.06
79527;BME280;68974;47.754;-3.364;2023-04-16T01:01:44;102609.06;;;9.38;62.40
79527;BME280;68974;47.754;-3.364;2023-04-16T01:04:10;102597.66;;;9.41;62.39
79527;BME280;68974;47.754;-3.364;2023-04-16T01:06:35;102603.00;;;9.36;62.48
79527;BME280;68974;47.754;-3.364;2023-04-16T01:09:01;102602.47;;;9.28;62.21
79527;BME280;68974;47.754;-3.364;2023-04-16T01:11:26;102607.09;;;9.27;61.99
79527;BME280;68974;47.754;-3.364;2023-04-16T01:13:51;102604.13;;;9.29;62.01
79527;BME280;68974;47.754;-3.364;2023-04-16T01:16:17;102608.78;;;9.28;62.72
79527;BME280;68974;47.754;-3.364;2023-04-16T01:18:42;102599.09;;;9.26;62.40
79527;BME280;68974;47.754;-3.364;2023-04-16T01:21:08;102599.63;;;9.16;62.33
79527;BME280;68974;47.754;-3.364;2023-04-16T01:23:33;102603.84;;;9.19;62.34
79527;BME280;68974;47.754;-3.364;2023-04-16T01:25:58;102608.84;;;9.22;62.48
79527;BME280;68974;47.754;-3.364;2023-04-16T01:28:24;102607.22;;;9.14;62.39
79527;BME280;68974;47.754;-3.364;2023-04-16T01:30:49;102602.72;;;9.01;63.43
79527;BME280;68974;47.754;-3.364;2023-04-16T01:33:17;102609.78;;;8.91;63.40
79527;BME280;68974;47.754;-3.364;2023-04-16T01:35:43;102611.28;;;8.87;63.08
79527;BME280;68974;47.754;-3.364;2023-04-16T01:38:09;102617.00;;;8.85;64.19
79527;BME280;68974;47.754;-3.364;2023-04-16T01:40:35;102616.72;;;8.93;63.91
79527;BME280;68974;47.754;-3.364;2023-04-16T01:43:01;102612.50;;;8.91;64.15
79527;BME280;68974;47.754;-3.364;2023-04-16T01:45:27;102621.75;;;8.96;64.30
79527;BME280;68974;47.754;-3.364;2023-04-16T01:47:52;102609.59;;;8.86;64.92
79527;BME280;68974;47.754;-3.364;2023-04-16T01:50:19;102615.81;;;8.99;64.18
79527;BME280;68974;47.754;-3.364;2023-04-16T01:52:45;102616.81;;;9.05;64.19
79527;BME280;68974;47.754;-3.364;2023-04-16T01:55:10;102611.00;;;8.95;64.33
79527;BME280;68974;47.754;-3.364;2023-04-16T01:57:36;102604.75;;;8.88;64.77
79527;BME280;68974;47.754;-3.364;2023-04-16T02:00:03;102603.19;;;8.74;64.91
79527;BME280;68974;47.754;-3.364;2023-04-16T02:02:29;102599.66;;;8.66;65.51
79527;BME280;68974;47.754;-3.364;2023-04-16T02:04:55;102601.34;;;8.67;65.79
79527;BME280;68974;47.754;-3.364;2023-04-16T02:07:23;102595.81;;;8.49;66.11
79527;BME280;68974;47.754;-3.364;2023-04-16T02:09:49;102591.91;;;8.32;66.86
79527;BME280;68974;47.754;-3.364;2023-04-16T02:12:18;102589.25;;;8.19;67.45
79527;BME280;68974;47.754;-3.364;2023-04-16T02:14:44;102594.06;;;8.23;67.78
79527;BME280;68974;47.754;-3.364;2023-04-16T02:17:10;102591.53;;;8.22;67.48
79527;BME280;68974;47.754;-3.364;2023-04-16T02:19:35;102585.38;;;8.26;67.79
79527;BME280;68974;47.754;-3.364;2023-04-16T02:22:01;102589.41;;;8.24;67.90
79527;BME280;68974;47.754;-3.364;2023-04-16T02:24:27;102589.41;;;8.31;68.09
79527;BME280;68974;47.754;-3.364;2023-04-16T02:26:53;102585.91;;;8.48;67.73
79527;BME280;68974;47.754;-3.364;2023-04-16T02:29:18;102587.66;;;8.36;67.66
79527;BME280;68974;47.754;-3.364;2023-04-16T02:31:44;102591.22;;;8.43;67.83
79527;BME280;68974;47.754;-3.364;2023-04-16T02:34:10;102583.09;;;8.30;68.04
79527;BME280;68974;47.754;-3.364;2023-04-16T02:36:36;102582.09;;;8.18;69.00
79527;BME280;68974;47.754;-3.364;2023-04-16T02:39:01;102571.13;;;8.18;69.37
79527;BME280;68974;47.754;-3.364;2023-04-16T02:41:26;102569.06;;;8.13;69.31
79527;BME280;68974;47.754;-3.364;2023-04-16T02:43:52;102568.50;;;8.05;69.19
79527;BME280;68974;47.754;-3.364;2023-04-16T02:46:17;102571.88;;;8.00;69.15
79527;BME280;68974;47.754;-3.364;2023-04-16T02:48:43;102580.19;;;8.18;67.80
79527;BME280;68974;47.754;-3.364;2023-04-16T02:51:08;102575.56;;;8.19;68.37
79527;BME280;68974;47.754;-3.364;2023-04-16T02:53:34;102575.19;;;8.09;68.00
79527;BME280;68974;47.754;-3.364;2023-04-16T02:55:59;102569.34;;;7.99;68.52
79527;BME280;68974;47.754;-3.364;2023-04-16T02:58:25;102571.81;;;8.07;68.72
79527;BME280;68974;47.754;-3.364;2023-04-16T03:00:52;102575.59;;;8.12;68.88
79527;BME280;68974;47.754;-3.364;2023-04-16T03:03:18;102577.28;;;8.13;68.20
79527;BME280;68974;47.754;-3.364;2023-04-16T03:05:43;102574.38;;;8.02;68.58
79527;BME280;68974;47.754;-3.364;2023-04-16T03:08:09;102576.03;;;8.09;68.84
79527;BME280;68974;47.754;-3.364;2023-04-16T03:10:35;102577.19;;;7.95;69.11
79527;BME280;68974;47.754;-3.364;2023-04-16T03:13:00;102573.03;;;7.86;69.10
79527;BME280;68974;47.754;-3.364;2023-04-16T03:15:26;102570.69;;;7.90;68.90
79527;BME280;68974;47.754;-3.364;2023-04-16T03:17:52;102570.59;;;8.03;68.90
79527;BME280;68974;47.754;-3.364;2023-04-16T03:20:17;102568.91;;;8.02;69.09
79527;BME280;68974;47.754;-3.364;2023-04-16T03:22:44;102566.16;;;8.02;69.43
79527;BME280;68974;47.754;-3.364;2023-04-16T03:25:10;102566.00;;;7.97;69.02
79527;BME280;68974;47.754;-3.364;2023-04-16T03:27:36;102566.63;;;7.99;69.26
79527;BME280;68974;47.754;-3.364;2023-04-16T03:30:07;102558.56;;;8.10;68.97
79527;BME280;68974;47.754;-3.364;2023-04-16T03:32:32;102562.63;;;8.01;69.44
79527;BME280;68974;47.754;-3.364;2023-04-16T03:34:58;102555.50;;;7.94;69.10
79527;BME280;68974;47.754;-3.364;2023-04-16T03:37:23;102555.50;;;7.94;69.44
79527;BME280;68974;47.754;-3.364;2023-04-16T03:39:49;102559.72;;;7.90;69.53
79527;BME280;68974;47.754;-3.364;2023-04-16T03:42:14;102556.34;;;7.94;69.53
79527;BME280;68974;47.754;-3.364;2023-04-16T03:44:40;102559.03;;;8.01;69.70
79527;BME280;68974;47.754;-3.364;2023-04-16T03:47:05;102558.78;;;8.09;68.95
79527;BME280;68974;47.754;-3.364;2023-04-16T03:49:31;102561.34;;;7.97;68.74
79527;BME280;68974;47.754;-3.364;2023-04-16T03:51:56;102552.75;;;7.94;69.24
79527;BME280;68974;47.754;-3.364;2023-04-16T03:54:21;102558.91;;;7.89;68.89
79527;BME280;68974;47.754;-3.364;2023-04-16T03:56:47;102550.72;;;7.82;69.04
79527;BME280;68974;47.754;-3.364;2023-04-16T03:59:12;102553.41;;;7.89;69.74
79527;BME280;68974;47.754;-3.364;2023-04-16T04:01:37;102554.34;;;7.76;70.19
79527;BME280;68974;47.754;-3.364;2023-04-16T04:04:03;102569.06;;;7.75;70.55
79527;BME280;68974;47.754;-3.364;2023-04-16T04:06:28;102565.28;;;7.76;70.31
79527;BME280;68974;47.754;-3.364;2023-04-16T04:08:54;102564.34;;;7.96;69.28
79527;BME280;68974;47.754;-3.364;2023-04-16T04:11:19;102565.19;;;7.96;69.20
79527;BME280;68974;47.754;-3.364;2023-04-16T04:13:44;102562.28;;;7.84;69.22
79527;BME280;68974;47.754;-3.364;2023-04-16T04:16:10;102563.16;;;7.78;69.77
79527;BME280;68974;47.754;-3.364;2023-04-16T04:18:35;102563.63;;;7.69;70.01
79527;BME280;68974;47.754;-3.364;2023-04-16T04:21:05;102571.63;;;7.64;70.33
79527;BME280;68974;47.754;-3.364;2023-04-16T04:23:31;102564.53;;;7.56;70.71
79527;BME280;68974;47.754;-3.364;2023-04-16T04:25:56;102577.94;;;7.64;70.58
79527;BME280;68974;47.754;-3.364;2023-04-16T04:28:22;102572.09;;;7.61;71.06
79527;BME280;68974;47.754;-3.364;2023-04-16T04:30:47;102577.19;;;7.44;71.67
79527;BME280;68974;47.754;-3.364;2023-04-16T04:33:12;102571.53;;;7.39;71.49
79527;BME280;68974;47.754;-3.364;2023-04-16T04:35:38;102577.56;;;7.54;71.32
79527;BME280;68974;47.754;-3.364;2023-04-16T04:38:03;102574.22;;;7.52;70.80
79527;BME280;68974;47.754;-3.364;2023-04-16T04:40:29;102576.97;;;7.52;71.58
79527;BME280;68974;47.754;-3.364;2023-04-16T04:42:54;102579.91;;;7.57;71.50
79527;BME280;68974;47.754;-3.364;2023-04-16T04:45:19;102585.97;;;7.59;71.59
79527;BME280;68974;47.754;-3.364;2023-04-16T04:47:45;102584.25;;;7.65;71.01
79527;BME280;68974;47.754;-3.364;2023-04-16T04:50:10;102587.41;;;7.68;71.19
79527;BME280;68974;47.754;-3.364;2023-04-16T04:52:36;102588.50;;;7.54;71.77
79527;BME280;68974;47.754;-3.364;2023-04-16T04:55:01;102584.72;;;7.55;71.44
79527;BME280;68974;47.754;-3.364;2023-04-16T04:57:26;102595.72;;;7.42;72.14
79527;BME280;68974;47.754;-3.364;2023-04-16T04:59:52;102589.34;;;7.55;71.89
79527;BME280;68974;47.754;-3.364;2023-04-16T05:02:17;102590.84;;;7.44;72.06
79527;BME280;68974;47.754;-3.364;2023-04-16T05:04:42;102591.50;;;7.46;71.84
79527;BME280;68974;47.754;-3.364;2023-04-16T05:07:08;102582.47;;;7.39;72.32
79527;BME280;68974;47.754;-3.364;2023-04-16T05:09:33;102578.94;;;7.32;72.33
79527;BME280;68974;47.754;-3.364;2023-04-16T05:11:58;102575.09;;;7.39;71.57
79527;BME280;68974;47.754;-3.364;2023-04-16T05:14:24;102573.06;;;7.22;72.70
79527;BME280;68974;47.754;-3.364;2023-04-16T05:16:49;102574.06;;;7.34;71.92
79527;BME280;68974;47.754;-3.364;2023-04-16T05:19:15;102572.41;;;7.26;72.08
79527;BME280;68974;47.754;-3.364;2023-04-16T05:21:41;102584.59;;;7.24;72.57
79527;BME280;68974;47.754;-3.364;2023-04-16T05:24:06;102582.31;;;7.21;72.53
79527;BME280;68974;47.754;-3.364;2023-04-16T05:26:32;102574.97;;;7.15;73.30
79527;BME280;68974;47.754;-3.364;2023-04-16T05:28:57;102571.81;;;7.18;72.71
79527;BME280;68974;47.754;-3.364;2023-04-16T05:31:22;102569.94;;;7.12;73.88
79527;BME280;68974;47.754;-3.364;2023-04-16T05:33:48;102565.91;;;7.21;72.80
79527;BME280;68974;47.754;-3.364;2023-04-16T05:36:13;102573.06;;;7.09;73.96
79527;BME280;68974;47.754;-3.364;2023-04-16T05:38:38;102570.97;;;7.17;73.73
79527;BME280;68974;47.754;-3.364;2023-04-16T05:41:04;102569.88;;;7.31;73.13
79527;BME280;68974;47.754;-3.364;2023-04-16T05:43:29;102571.38;;;7.21;73.10
79527;BME280;68974;47.754;-3.364;2023-04-16T05:45:55;102566.31;;;7.24;73.25
79527;BME280;68974;47.754;-3.364;2023-04-16T05:48:20;102571.75;;;7.37;71.93
79527;BME280;68974;47.754;-3.364;2023-04-16T05:50:46;102585.78;;;7.54;71.80
79527;BME280;68974;47.754;-3.364;2023-04-16T05:53:11;102578.84;;;7.52;71.38
79527;BME280;68974;47.754;-3.364;2023-04-16T05:55:38;102578.84;;;7.52;71.97
79527;BME280;68974;47.754;-3.364;2023-04-16T05:58:03;102580.28;;;7.61;71.95
79527;BME280;68974;47.754;-3.364;2023-04-16T06:00:32;102577.09;;;7.70;71.00
79527;BME280;68974;47.754;-3.364;2023-04-16T06:02:57;102582.56;;;7.70;71.31
79527;BME280;68974;47.754;-3.364;2023-04-16T06:05:25;102593.25;;;7.78;70.42
79527;BME280;68974;47.754;-3.364;2023-04-16T06:07:51;102584.19;;;7.84;69.92
79527;BME280;68974;47.754;-3.364;2023-04-16T06:10:16;102590.00;;;7.95;70.02
79527;BME280;68974;47.754;-3.364;2023-04-16T06:12:42;102583.41;;;8.09;69.79
79527;BME280;68974;47.754;-3.364;2023-04-16T06:15:08;102592.44;;;8.16;69.74
79527;BME280;68974;47.754;-3.364;2023-04-16T06:17:34;102603.09;;;8.24;68.80
79527;BME280;68974;47.754;-3.364;2023-04-16T06:20:00;102593.31;;;8.10;68.99
79527;BME280;68974;47.754;-3.364;2023-04-16T06:22:25;102600.75;;;8.27;68.74
79527;BME280;68974;47.754;-3.364;2023-04-16T06:24:51;102606.44;;;8.33;68.52
79527;BME280;68974;47.754;-3.364;2023-04-16T06:27:17;102601.59;;;8.35;68.08
79527;BME280;68974;47.754;-3.364;2023-04-16T06:29:42;102600.69;;;8.41;68.30
79527;BME280;68974;47.754;-3.364;2023-04-16T06:32:08;102609.16;;;8.39;68.06
79527;BME280;68974;47.754;-3.364;2023-04-16T06:34:34;102603.19;;;8.49;68.09
79527;BME280;68974;47.754;-3.364;2023-04-16T06:36:59;102601.50;;;8.48;67.56
79527;BME280;68974;47.754;-3.364;2023-04-16T06:39:25;102604.19;;;8.54;67.74
79527;BME280;68974;47.754;-3.364;2023-04-16T06:41:50;102610.03;;;8.64;68.10
79527;BME280;68974;47.754;-3.364;2023-04-16T06:44:16;102618.41;;;8.69;67.61
79527;BME280;68974;47.754;-3.364;2023-04-16T06:46:41;102618.28;;;8.83;67.72
79527;BME280;68974;47.754;-3.364;2023-04-16T06:49:07;102625.31;;;8.97;67.18
79527;BME280;68974;47.754;-3.364;2023-04-16T06:51:32;102627.53;;;9.49;65.42
79527;BME280;68974;47.754;-3.364;2023-04-16T06:53:58;102630.25;;;9.68;64.22
79527;BME280;68974;47.754;-3.364;2023-04-16T06:56:23;102626.00;;;9.72;64.08
79527;BME280;68974;47.754;-3.364;2023-04-16T06:58:49;102633.63;;;9.70;64.34
79527;BME280;68974;47.754;-3.364;2023-04-16T07:01:16;102641.25;;;9.68;64.40
79527;BME280;68974;47.754;-3.364;2023-04-16T07:03:41;102642.63;;;9.58;65.20
79527;BME280;68974;47.754;-3.364;2023-04-16T07:06:07;102647.66;;;9.62;65.06
79527;BME280;68974;47.754;-3.364;2023-04-16T07:08:32;102638.19;;;9.39;65.72
79527;BME280;68974;47.754;-3.364;2023-04-16T07:10:57;102639.72;;;9.53;65.47
79527;BME280;68974;47.754;-3.364;2023-04-16T07:13:23;102633.78;;;9.56;65.79
79527;BME280;68974;47.754;-3.364;2023-04-16T07:15:49;102631.19;;;9.62;65.68
79527;BME280;68974;47.754;-3.364;2023-04-16T07:18:15;102633.63;;;9.70;65.54
79527;BME280;68974;47.754;-3.364;2023-04-16T07:20:40;102633.94;;;9.80;65.82
79527;BME280;68974;47.754;-3.364;2023-04-16T07:23:06;102632.53;;;9.89;65.53
79527;BME280;68974;47.754;-3.364;2023-04-16T07:25:31;102635.94;;;10.02;64.50
79527;BME280;68974;47.754;-3.364;2023-04-16T07:27:57;102632.91;;;9.92;65.16
79527;BME280;68974;47.754;-3.364;2023-04-16T07:30:22;102645.50;;;10.00;65.46
79527;BME280;68974;47.754;-3.364;2023-04-16T07:32:47;102637.84;;;10.02;64.66
79527;BME280;68974;47.754;-3.364;2023-04-16T07:35:13;102643.63;;;10.12;64.54
79527;BME280;68974;47.754;-3.364;2023-04-16T07:37:38;102636.84;;;10.15;65.50
79527;BME280;68974;47.754;-3.364;2023-04-16T07:40:05;102646.22;;;10.07;65.92
79527;BME280;68974;47.754;-3.364;2023-04-16T07:42:31;102638.13;;;10.12;66.01
79527;BME280;68974;47.754;-3.364;2023-04-16T07:44:56;102635.34;;;10.19;65.97
79527;BME280;68974;47.754;-3.364;2023-04-16T07:47:21;102644.91;;;10.16;66.61
79527;BME280;68974;47.754;-3.364;2023-04-16T07:49:47;102642.41;;;10.26;66.30
79527;BME280;68974;47.754;-3.364;2023-04-16T07:52:14;102634.28;;;10.50;65.51
79527;BME280;68974;47.754;-3.364;2023-04-16T07:54:39;102637.91;;;10.85;65.13
79527;BME280;68974;47.754;-3.364;2023-04-16T07:57:05;102634.25;;;11.03;64.44
79527;BME280;68974;47.754;-3.364;2023-04-16T07:59:30;102637.56;;;12.14;61.02
79527;BME280;68974;47.754;-3.364;2023-04-16T08:01:55;102638.53;;;12.98;58.42
79527;BME280;68974;47.754;-3.364;2023-04-16T08:04:21;102633.44;;;13.62;56.18
79527;BME280;68974;47.754;-3.364;2023-04-16T08:06:50;102635.66;;;13.65;55.57
79527;BME280;68974;47.754;-3.364;2023-04-16T08:09:16;102629.56;;;12.91;57.89
79527;BME280;68974;47.754;-3.364;2023-04-16T08:11:41;102627.16;;;13.12;57.39
79527;BME280;68974;47.754;-3.364;2023-04-16T08:14:07;102634.13;;;13.53;56.17
79527;BME280;68974;47.754;-3.364;2023-04-16T08:16:32;102632.47;;;13.35;56.88
79527;BME280;68974;47.754;-3.364;2023-04-16T08:18:58;102627.78;;;13.52;56.28
79527;BME280;68974;47.754;-3.364;2023-04-16T08:21:25;102637.56;;;13.81;55.59
79527;BME280;68974;47.754;-3.364;2023-04-16T08:23:52;102629.63;;;14.60;53.38
79527;BME280;68974;47.754;-3.364;2023-04-16T08:26:18;102624.38;;;15.80;50.03
79527;BME280;68974;47.754;-3.364;2023-04-16T08:28:43;102628.97;;;16.21;48.23
79527;BME280;68974;47.754;-3.364;2023-04-16T08:31:09;102626.47;;;16.30;48.38
79527;BME280;68974;47.754;-3.364;2023-04-16T08:33:34;102626.22;;;16.57;47.75
79527;BME280;68974;47.754;-3.364;2023-04-16T08:36:00;102630.19;;;16.71;47.20
79527;BME280;68974;47.754;-3.364;2023-04-16T08:38:25;102635.47;;;15.85;49.09
79527;BME280;68974;47.754;-3.364;2023-04-16T08:40:52;102628.16;;;15.58;49.66
79527;BME280;68974;47.754;-3.364;2023-04-16T08:43:21;102633.38;;;16.27;48.82
79527;BME280;68974;47.754;-3.364;2023-04-16T08:45:47;102642.50;;;16.13;49.25
79527;BME280;68974;47.754;-3.364;2023-04-16T08:48:13;102641.81;;;16.73;47.46
79527;BME280;68974;47.754;-3.364;2023-04-16T08:50:40;102638.78;;;17.05;46.42
79527;BME280;68974;47.754;-3.364;2023-04-16T08:53:06;102642.91;;;17.43;45.85
79527;BME280;68974;47.754;-3.364;2023-04-16T08:55:47;102650.69;;;17.25;45.34
79527;BME280;68974;47.754;-3.364;2023-04-16T08:58:15;102641.69;;;17.84;44.70
79527;BME280;68974;47.754;-3.364;2023-04-16T09:00:43;102653.09;;;17.88;43.90
79527;BME280;68974;47.754;-3.364;2023-04-16T09:03:10;102648.91;;;17.85;44.31
79527;BME280;68974;47.754;-3.364;2023-04-16T09:05:36;102651.78;;;18.24;43.66
79527;BME280;68974;47.754;-3.364;2023-04-16T09:08:03;102647.66;;;18.16;43.74
79527;BME280;68974;47.754;-3.364;2023-04-16T09:10:30;102657.81;;;17.82;44.18
79527;BME280;68974;47.754;-3.364;2023-04-16T09:12:55;102654.75;;;18.38;43.55
79527;BME280;68974;47.754;-3.364;2023-04-16T09:15:21;102647.75;;;18.55;42.81
79527;BME280;68974;47.754;-3.364;2023-04-16T09:17:47;102641.16;;;17.77;44.16
79527;BME280;68974;47.754;-3.364;2023-04-16T09:20:13;102648.34;;;17.88;43.65
79527;BME280;68974;47.754;-3.364;2023-04-16T09:22:39;102649.59;;;17.21;46.10
79527;BME280;68974;47.754;-3.364;2023-04-16T09:25:05;102649.44;;;17.92;44.74
79527;BME280;68974;47.754;-3.364;2023-04-16T09:27:31;102649.53;;;16.40;47.58
79527;BME280;68974;47.754;-3.364;2023-04-16T09:29:57;102656.38;;;16.18;49.28
79527;BME280;68974;47.754;-3.364;2023-04-16T09:32:27;102660.38;;;15.80;49.95
79527;BME280;68974;47.754;-3.364;2023-04-16T09:34:59;102661.28;;;15.90;48.76
79527;BME280;68974;47.754;-3.364;2023-04-16T09:37:29;102661.19;;;16.58;47.62
79527;BME280;68974;47.754;-3.364;2023-04-16T09:42:29;102654.25;;;16.50;47.27
79527;BME280;68974;47.754;-3.364;2023-04-16T09:44:56;102655.84;;;16.21;49.59
79527;BME280;68974;47.754;-3.364;2023-04-16T09:47:24;102663.00;;;15.54;51.75
79527;BME280;68974;47.754;-3.364;2023-04-16T09:49:49;102660.19;;;15.49;51.70
79527;BME280;68974;47.754;-3.364;2023-04-16T09:52:21;102659.06;;;15.45;52.07
79527;BME280;68974;47.754;-3.364;2023-04-16T09:54:48;102657.84;;;16.35;49.73
79527;BME280;68974;47.754;-3.364;2023-04-16T09:57:22;102655.16;;;16.66;49.32
79527;BME280;68974;47.754;-3.364;2023-04-16T09:59:54;102644.75;;;16.21;49.64
79527;BME280;68974;47.754;-3.364;2023-04-16T10:02:29;102658.22;;;17.00;45.85
79527;BME280;68974;47.754;-3.364;2023-04-16T10:04:55;102648.47;;;17.32;43.24
79527;BME280;68974;47.754;-3.364;2023-04-16T10:07:21;102652.88;;;17.64;44.07
79527;BME280;68974;47.754;-3.364;2023-04-16T10:09:48;102652.91;;;17.44;43.66
79527;BME280;68974;47.754;-3.364;2023-04-16T10:12:14;102655.09;;;16.56;47.05
79527;BME280;68974;47.754;-3.364;2023-04-16T10:14:40;102651.28;;;17.02;47.35
79527;BME280;68974;47.754;-3.364;2023-04-16T10:17:07;102655.44;;;17.15;46.50
79527;BME280;68974;47.754;-3.364;2023-04-16T10:19:34;102658.09;;;17.81;46.22
79527;BME280;68974;47.754;-3.364;2023-04-16T10:22:00;102650.97;;;17.44;47.33
79527;BME280;68974;47.754;-3.364;2023-04-16T10:24:27;102663.69;;;17.50;45.10
79527;BME280;68974;47.754;-3.364;2023-04-16T10:26:53;102653.44;;;17.41;46.79
79527;BME280;68974;47.754;-3.364;2023-04-16T10:29:20;102665.53;;;18.00;44.96
79527;BME280;68974;47.754;-3.364;2023-04-16T10:31:46;102656.81;;;17.22;45.98
79527;BME280;68974;47.754;-3.364;2023-04-16T10:34:12;102651.66;;;18.44;43.05
79527;BME280;68974;47.754;-3.364;2023-04-16T10:36:38;102657.06;;;18.26;43.67
79527;BME280;68974;47.754;-3.364;2023-04-16T10:39:11;102646.91;;;18.55;41.93
79527;BME280;68974;47.754;-3.364;2023-04-16T10:41:38;102647.50;;;19.20;39.56
79527;BME280;68974;47.754;-3.364;2023-04-16T10:46:31;102661.47;;;19.72;39.85
79527;BME280;68974;47.754;-3.364;2023-04-16T10:49:02;102654.91;;;20.06;38.64
79527;BME280;68974;47.754;-3.364;2023-04-16T10:51:35;102661.00;;;19.31;39.74
79527;BME280;68974;47.754;-3.364;2023-04-16T10:56:32;102660.38;;;19.92;37.71
79527;BME280;68974;47.754;-3.364;2023-04-16T10:58:58;102658.84;;;20.23;36.23
79527;BME280;68974;47.754;-3.364;2023-04-16T11:01:32;102668.13;;;20.61;35.19
79527;BME280;68974;47.754;-3.364;2023-04-16T11:09:59;102655.38;;;20.88;33.02
79527;BME280;68974;47.754;-3.364;2023-04-16T11:17:22;102651.44;;;20.14;34.58
79527;BME280;68974;47.754;-3.364;2023-04-16T11:19:47;102651.28;;;20.99;32.74
79527;BME280;68974;47.754;-3.364;2023-04-16T11:22:14;102642.53;;;21.65;32.20
79527;BME280;68974;47.754;-3.364;2023-04-16T11:24:42;102652.47;;;21.30;30.65
79527;BME280;68974;47.754;-3.364;2023-04-16T11:27:08;102644.50;;;21.51;29.37
79527;BME280;68974;47.754;-3.364;2023-04-16T11:29:33;102646.34;;;21.42;28.25
79527;BME280;68974;47.754;-3.364;2023-04-16T11:31:59;102657.06;;;21.81;27.57
79527;BME280;68974;47.754;-3.364;2023-04-16T11:34:25;102647.53;;;21.82;28.15
79527;BME280;68974;47.754;-3.364;2023-04-16T11:36:51;102644.25;;;21.93;27.75
79527;BME280;68974;47.754;-3.364;2023-04-16T11:39:17;102644.31;;;21.88;26.02
79527;BME280;68974;47.754;-3.364;2023-04-16T11:44:29;102636.72;;;21.34;28.21
79527;BME280;68974;47.754;-3.364;2023-04-16T11:46:54;102635.44;;;20.62;28.95
79527;BME280;68974;47.754;-3.364;2023-04-16T11:49:29;102637.69;;;21.71;27.61
79527;BME280;68974;47.754;-3.364;2023-04-16T11:51:55;102630.22;;;21.52;27.38
79527;BME280;68974;47.754;-3.364;2023-04-16T11:54:22;102638.94;;;21.65;27.20
79527;BME280;68974;47.754;-3.364;2023-04-16T11:56:50;102638.59;;;21.66;26.62
79527;BME280;68974;47.754;-3.364;2023-04-16T11:59:21;102633.84;;;21.80;27.11
79527;BME280;68974;47.754;-3.364;2023-04-16T12:01:53;102639.44;;;20.56;28.68
79527;BME280;68974;47.754;-3.364;2023-04-16T12:04:24;102631.81;;;20.94;28.50
79527;BME280;68974;47.754;-3.364;2023-04-16T12:07:10;102642.84;;;21.04;27.28
79527;BME280;68974;47.754;-3.364;2023-04-16T12:09:37;102634.69;;;21.53;26.24
79527;BME280;68974;47.754;-3.364;2023-04-16T12:12:02;102638.03;;;20.91;27.28
79527;BME280;68974;47.754;-3.364;2023-04-16T12:14:28;102634.31;;;20.95;28.28
79527;BME280;68974;47.754;-3.364;2023-04-16T12:16:54;102643.75;;;20.67;27.52
79527;BME280;68974;47.754;-3.364;2023-04-16T12:19:20;102637.41;;;20.94;28.58
79527;BME280;68974;47.754;-3.364;2023-04-16T12:21:47;102640.47;;;21.71;28.39
79527;BME280;68974;47.754;-3.364;2023-04-16T12:24:15;102639.56;;;21.89;28.43
79527;BME280;68974;47.754;-3.364;2023-04-16T12:26:51;102636.31;;;22.23;28.72
79527;BME280;68974;47.754;-3.364;2023-04-16T12:29:22;102639.00;;;22.64;28.07
79527;BME280;68974;47.754;-3.364;2023-04-16T12:31:48;102633.66;;;23.20;27.83
79527;BME280;68974;47.754;-3.364;2023-04-16T12:34:14;102632.97;;;22.34;28.50
79527;BME280;68974;47.754;-3.364;2023-04-16T12:36:41;102621.00;;;23.54;27.05
79527;BME280;68974;47.754;-3.364;2023-04-16T12:39:07;102612.69;;;23.80;26.39
79527;BME280;68974;47.754;-3.364;2023-04-16T12:41:36;102615.00;;;23.86;26.54
79527;BME280;68974;47.754;-3.364;2023-04-16T12:44:03;102624.38;;;23.11;28.62
79527;BME280;68974;47.754;-3.364;2023-04-16T12:46:29;102609.38;;;23.95;27.09
79527;BME280;68974;47.754;-3.364;2023-04-16T12:48:54;102614.84;;;22.90;28.73
79527;BME280;68974;47.754;-3.364;2023-04-16T12:51:21;102609.06;;;23.88;27.93
79527;BME280;68974;47.754;-3.364;2023-04-16T12:53:47;102606.25;;;23.96;27.94
79527;BME280;68974;47.754;-3.364;2023-04-16T12:56:13;102603.88;;;24.72;26.51
79527;BME280;68974;47.754;-3.364;2023-04-16T12:58:38;102605.03;;;24.54;26.22
79527;BME280;68974;47.754;-3.364;2023-04-16T13:01:03;102612.94;;;24.69;26.31